sensor_id;sensor_type;location;lat;lon;timestamp;temperature;humidity
28845;DHT22;15976;47.938;7.758;2023-09-30T00:02:00;18.10;69.50
28845;DHT22;15976;47.938;7.758;2023-09-30T00:04:26;18.10;69.60
28845;DHT22;15976;47.938;7.758;2023-09-30T00:06:55;18.10;69.60
28845;DHT22;15976;47.938;7.758;2023-09-30T00:09:22;18.10;69.60
28845;DHT22;15976;47.938;7.758;2023-09-30T00:11:49;18.00;69.70
28845;DHT22;15976;47.938;7.758;2023-09-30T00:14:16;18.10;69.80
28845;DHT22;15976;47.938;7.758;2023-09-30T00:16:45;18.00;69.80
28845;DHT22;15976;47.938;7.758;2023-09-30T00:19:12;18.00;70.00
28845;DHT22;15976;47.938;7.758;2023-09-30T00:21:41;17.90;70.00
28845;DHT22;15976;47.938;7.758;2023-09-30T00:24:08;17.90;70.10
28845;DHT22;15976;47.938;7.758;2023-09-30T00:26:37;17.90;70.20
28845;DHT22;15976;47.938;7.758;2023-09-30T00:29:04;17.80;70.20
28845;DHT22;15976;47.938;7.758;2023-09-30T00:31:32;17.80;70.40
28845;DHT22;15976;47.938;7.758;2023-09-30T00:33:59;17.70;70.40
28845;DHT22;15976;47.938;7.758;2023-09-30T00:36:26;17.70;70.60
28845;DHT22;15976;47.938;7.758;2023-09-30T00:38:54;17.70;70.80
28845;DHT22;15976;47.938;7.758;2023-09-30T00:41:21;17.70;70.90
28845;DHT22;15976;47.938;7.758;2023-09-30T00:43:49;17.70;70.90
28845;DHT22;15976;47.938;7.758;2023-09-30T00:46:29;17.70;71.00
28845;DHT22;15976;47.938;7.758;2023-09-30T00:48:58;17.70;70.90
28845;DHT22;15976;47.938;7.758;2023-09-30T00:51:27;17.70;70.90
28845;DHT22;15976;47.938;7.758;2023-09-30T00:53:57;17.60;70.80
28845;DHT22;15976;47.938;7.758;2023-09-30T00:56:27;17.60;71.00
28845;DHT22;15976;47.938;7.758;2023-09-30T00:58:55;17.60;71.10
28845;DHT22;15976;47.938;7.758;2023-09-30T01:01:23;17.50;71.20
28845;DHT22;15976;47.938;7.758;2023-09-30T01:03:51;17.50;71.30
28845;DHT22;15976;47.938;7.758;2023-09-30T01:06:19;17.40;71.50
28845;DHT22;15976;47.938;7.758;2023-09-30T01:08:47;17.30;71.60
28845;DHT22;15976;47.938;7.758;2023-09-30T01:11:15;17.30;71.80
28845;DHT22;15976;47.938;7.758;2023-09-30T01:13:42;17.30;71.90
28845;DHT22;15976;47.938;7.758;2023-09-30T01:16:12;17.30;72.10
28845;DHT22;15976;47.938;7.758;2023-09-30T01:18:40;17.30;72.30
28845;DHT22;15976;47.938;7.758;2023-09-30T01:21:10;17.20;72.40
28845;DHT22;15976;47.938;7.758;2023-09-30T01:23:40;17.20;72.50
28845;DHT22;15976;47.938;7.758;2023-09-30T01:26:10;17.20;72.60
28845;DHT22;15976;47.938;7.758;2023-09-30T01:28:40;17.20;72.80
28845;DHT22;15976;47.938;7.758;2023-09-30T01:31:08;17.20;72.90
28845;DHT22;15976;47.938;7.758;2023-09-30T01:33:36;17.10;72.80
28845;DHT22;15976;47.938;7.758;2023-09-30T01:36:03;17.10;72.90
28845;DHT22;15976;47.938;7.758;2023-09-30T01:38:31;17.10;73.00
28845;DHT22;15976;47.938;7.758;2023-09-30T01:40:58;17.10;73.10
28845;DHT22;15976;47.938;7.758;2023-09-30T01:43:27;17.00;73.90
28845;DHT22;15976;47.938;7.758;2023-09-30T01:45:54;17.00;73.20
28845;DHT22;15976;47.938;7.758;2023-09-30T01:48:22;17.00;73.30
28845;DHT22;15976;47.938;7.758;2023-09-30T01:50:49;16.90;73.10
28845;DHT22;15976;47.938;7.758;2023-09-30T01:53:17;16.90;73.20
28845;DHT22;15976;47.938;7.758;2023-09-30T01:55:44;16.90;73.50
28845;DHT22;15976;47.938;7.758;2023-09-30T01:58:12;16.90;73.70
28845;DHT22;15976;47.938;7.758;2023-09-30T02:00:39;16.90;73.90
28845;DHT22;15976;47.938;7.758;2023-09-30T02:03:07;16.90;73.90
28845;DHT22;15976;47.938;7.758;2023-09-30T02:05:34;16.90;74.00
28845;DHT22;15976;47.938;7.758;2023-09-30T02:08:04;16.80;74.00
28845;DHT22;15976;47.938;7.758;2023-09-30T02:10:33;16.80;74.10
28845;DHT22;15976;47.938;7.758;2023-09-30T02:13:00;16.80;74.30
28845;DHT22;15976;47.938;7.758;2023-09-30T02:15:28;16.70;74.30
28845;DHT22;15976;47.938;7.758;2023-09-30T02:17:55;16.70;74.50
28845;DHT22;15976;47.938;7.758;2023-09-30T02:20:22;16.70;74.70
28845;DHT22;15976;47.938;7.758;2023-09-30T02:22:52;16.70;74.70
28845;DHT22;15976;47.938;7.758;2023-09-30T02:25:21;16.70;74.50
28845;DHT22;15976;47.938;7.758;2023-09-30T02:27:50;16.60;74.20
28845;DHT22;15976;47.938;7.758;2023-09-30T02:30:17;16.60;74.10
28845;DHT22;15976;47.938;7.758;2023-09-30T02:32:45;16.50;74.00
28845;DHT22;15976;47.938;7.758;2023-09-30T02:35:15;16.40;74.10
28845;DHT22;15976;47.938;7.758;2023-09-30T02:37:42;16.40;74.00
28845;DHT22;15976;47.938;7.758;2023-09-30T02:40:10;16.40;74.10
28845;DHT22;15976;47.938;7.758;2023-09-30T02:42:40;16.40;74.30
28845;DHT22;15976;47.938;7.758;2023-09-30T02:45:10;16.40;74.30
28845;DHT22;15976;47.938;7.758;2023-09-30T02:47:38;16.30;74.10
28845;DHT22;15976;47.938;7.758;2023-09-30T02:50:07;16.30;74.20
28845;DHT22;15976;47.938;7.758;2023-09-30T02:52:35;16.30;74.40
28845;DHT22;15976;47.938;7.758;2023-09-30T02:55:04;16.30;75.30
28845;DHT22;15976;47.938;7.758;2023-09-30T02:57:32;16.20;74.70
28845;DHT22;15976;47.938;7.758;2023-09-30T02:59:59;16.20;75.00
28845;DHT22;15976;47.938;7.758;2023-09-30T03:02:28;16.20;75.00
28845;DHT22;15976;47.938;7.758;2023-09-30T03:04:56;16.10;74.80
28845;DHT22;15976;47.938;7.758;2023-09-30T03:07:25;16.10;75.00
28845;DHT22;15976;47.938;7.758;2023-09-30T03:09:53;16.10;75.20
28845;DHT22;15976;47.938;7.758;2023-09-30T03:12:21;16.10;75.20
28845;DHT22;15976;47.938;7.758;2023-09-30T03:14:48;16.10;75.20
28845;DHT22;15976;47.938;7.758;2023-09-30T03:17:15;16.10;75.10
28845;DHT22;15976;47.938;7.758;2023-09-30T03:19:43;16.10;75.10
28845;DHT22;15976;47.938;7.758;2023-09-30T03:22:10;16.10;75.00
28845;DHT22;15976;47.938;7.758;2023-09-30T03:24:39;16.20;75.00
28845;DHT22;15976;47.938;7.758;2023-09-30T03:27:07;16.20;74.90
28845;DHT22;15976;47.938;7.758;2023-09-30T03:29:38;16.20;74.80
28845;DHT22;15976;47.938;7.758;2023-09-30T03:32:05;16.20;74.80
28845;DHT22;15976;47.938;7.758;2023-09-30T03:34:34;16.30;74.80
28845;DHT22;15976;47.938;7.758;2023-09-30T03:37:04;16.30;74.60
28845;DHT22;15976;47.938;7.758;2023-09-30T03:39:34;16.20;74.30
28845;DHT22;15976;47.938;7.758;2023-09-30T03:42:02;16.20;74.30
28845;DHT22;15976;47.938;7.758;2023-09-30T03:44:30;16.20;74.60
28845;DHT22;15976;47.938;7.758;2023-09-30T03:46:57;16.20;74.70
28845;DHT22;15976;47.938;7.758;2023-09-30T03:49:28;16.20;74.80
28845;DHT22;15976;47.938;7.758;2023-09-30T03:51:55;16.10;74.80
28845;DHT22;15976;47.938;7.758;2023-09-30T03:54:22;16.00;74.70
28845;DHT22;15976;47.938;7.758;2023-09-30T03:56:49;15.90;74.90
28845;DHT22;15976;47.938;7.758;2023-09-30T03:59:17;15.90;75.30
28845;DHT22;15976;47.938;7.758;2023-09-30T04:01:45;15.80;75.20
28845;DHT22;15976;47.938;7.758;2023-09-30T04:04:14;15.80;75.30
28845;DHT22;15976;47.938;7.758;2023-09-30T04:06:41;15.70;75.40
28845;DHT22;15976;47.938;7.758;2023-09-30T04:09:11;15.80;75.50
28845;DHT22;15976;47.938;7.758;2023-09-30T04:11:38;15.70;75.60
28845;DHT22;15976;47.938;7.758;2023-09-30T04:14:06;15.70;75.80
28845;DHT22;15976;47.938;7.758;2023-09-30T04:16:35;15.60;76.00
28845;DHT22;15976;47.938;7.758;2023-09-30T04:19:04;15.70;76.70
28845;DHT22;15976;47.938;7.758;2023-09-30T04:21:31;15.60;77.10
28845;DHT22;15976;47.938;7.758;2023-09-30T04:24:02;15.70;77.50
28845;DHT22;15976;47.938;7.758;2023-09-30T04:26:31;15.70;77.60
28845;DHT22;15976;47.938;7.758;2023-09-30T04:28:59;15.70;77.50
28845;DHT22;15976;47.938;7.758;2023-09-30T04:31:27;15.70;77.30
28845;DHT22;15976;47.938;7.758;2023-09-30T04:33:55;15.70;77.00
28845;DHT22;15976;47.938;7.758;2023-09-30T04:36:25;15.70;76.90
28845;DHT22;15976;47.938;7.758;2023-09-30T04:38:52;15.80;76.90
28845;DHT22;15976;47.938;7.758;2023-09-30T04:41:19;15.70;76.80
28845;DHT22;15976;47.938;7.758;2023-09-30T04:43:48;15.70;76.80
28845;DHT22;15976;47.938;7.758;2023-09-30T04:46:16;15.80;76.90
28845;DHT22;15976;47.938;7.758;2023-09-30T04:48:47;15.80;77.00
28845;DHT22;15976;47.938;7.758;2023-09-30T04:51:15;15.80;77.00
28845;DHT22;15976;47.938;7.758;2023-09-30T04:53:46;15.80;76.90
28845;DHT22;15976;47.938;7.758;2023-09-30T04:56:13;15.70;76.70
28845;DHT22;15976;47.938;7.758;2023-09-30T04:58:41;15.70;76.70
28845;DHT22;15976;47.938;7.758;2023-09-30T05:01:09;15.70;76.80
28845;DHT22;15976;47.938;7.758;2023-09-30T05:03:36;15.70;76.90
28845;DHT22;15976;47.938;7.758;2023-09-30T05:06:04;15.60;76.90
28845;DHT22;15976;47.938;7.758;2023-09-30T05:08:32;15.80;76.70
28845;DHT22;15976;47.938;7.758;2023-09-30T05:10:59;15.80;76.50
28845;DHT22;15976;47.938;7.758;2023-09-30T05:13:27;15.80;76.30
28845;DHT22;15976;47.938;7.758;2023-09-30T05:15:54;15.80;76.20
28845;DHT22;15976;47.938;7.758;2023-09-30T05:18:22;15.90;77.10
28845;DHT22;15976;47.938;7.758;2023-09-30T05:20:52;15.90;76.30
28845;DHT22;15976;47.938;7.758;2023-09-30T05:23:19;15.90;76.40
28845;DHT22;15976;47.938;7.758;2023-09-30T05:25:47;15.90;76.60
28845;DHT22;15976;47.938;7.758;2023-09-30T05:28:14;15.90;76.70
28845;DHT22;15976;47.938;7.758;2023-09-30T05:30:42;15.90;76.80
28845;DHT22;15976;47.938;7.758;2023-09-30T05:33:11;15.90;76.90
28845;DHT22;15976;47.938;7.758;2023-09-30T05:35:41;15.90;77.00
28845;DHT22;15976;47.938;7.758;2023-09-30T05:38:09;15.90;77.00
28845;DHT22;15976;47.938;7.758;2023-09-30T05:40:37;16.00;77.00
28845;DHT22;15976;47.938;7.758;2023-09-30T05:43:04;15.90;76.80
28845;DHT22;15976;47.938;7.758;2023-09-30T05:45:32;16.00;76.80
28845;DHT22;15976;47.938;7.758;2023-09-30T05:48:03;16.00;76.80
28845;DHT22;15976;47.938;7.758;2023-09-30T05:50:34;16.00;76.70
28845;DHT22;15976;47.938;7.758;2023-09-30T05:53:04;16.10;76.80
28845;DHT22;15976;47.938;7.758;2023-09-30T05:55:34;16.10;76.80
28845;DHT22;15976;47.938;7.758;2023-09-30T05:58:02;16.10;76.70
28845;DHT22;15976;47.938;7.758;2023-09-30T06:00:30;16.20;76.80
28845;DHT22;15976;47.938;7.758;2023-09-30T06:02:58;16.20;76.70
28845;DHT22;15976;47.938;7.758;2023-09-30T06:05:27;16.20;76.70
28845;DHT22;15976;47.938;7.758;2023-09-30T06:08:01;16.20;76.60
28845;DHT22;15976;47.938;7.758;2023-09-30T06:10:32;16.30;76.80
28845;DHT22;15976;47.938;7.758;2023-09-30T06:12:59;16.30;76.60
28845;DHT22;15976;47.938;7.758;2023-09-30T06:15:27;16.30;76.70
28845;DHT22;15976;47.938;7.758;2023-09-30T06:17:55;16.30;77.00
28845;DHT22;15976;47.938;7.758;2023-09-30T06:20:23;16.40;77.20
28845;DHT22;15976;47.938;7.758;2023-09-30T06:22:54;16.50;77.10
28845;DHT22;15976;47.938;7.758;2023-09-30T06:25:23;16.50;76.80
28845;DHT22;15976;47.938;7.758;2023-09-30T06:27:51;16.50;76.70
28845;DHT22;15976;47.938;7.758;2023-09-30T06:30:19;16.60;76.70
28845;DHT22;15976;47.938;7.758;2023-09-30T06:32:48;16.60;76.50
28845;DHT22;15976;47.938;7.758;2023-09-30T06:35:16;16.60;76.80
28845;DHT22;15976;47.938;7.758;2023-09-30T06:37:44;16.50;77.00
28845;DHT22;15976;47.938;7.758;2023-09-30T06:40:12;16.50;77.10
28845;DHT22;15976;47.938;7.758;2023-09-30T06:42:40;16.60;77.20
28845;DHT22;15976;47.938;7.758;2023-09-30T06:45:08;16.60;77.10
28845;DHT22;15976;47.938;7.758;2023-09-30T06:47:39;16.60;77.10
28845;DHT22;15976;47.938;7.758;2023-09-30T06:50:11;16.70;77.00
28845;DHT22;15976;47.938;7.758;2023-09-30T06:52:40;16.80;76.90
28845;DHT22;15976;47.938;7.758;2023-09-30T06:55:10;16.80;76.60
28845;DHT22;15976;47.938;7.758;2023-09-30T06:57:40;16.90;76.60
28845;DHT22;15976;47.938;7.758;2023-09-30T07:00:12;16.90;76.70
28845;DHT22;15976;47.938;7.758;2023-09-30T07:02:41;17.00;76.70
28845;DHT22;15976;47.938;7.758;2023-09-30T07:05:14;17.10;76.40
28845;DHT22;15976;47.938;7.758;2023-09-30T07:07:42;17.20;76.10
28845;DHT22;15976;47.938;7.758;2023-09-30T07:10:13;17.30;75.80
28845;DHT22;15976;47.938;7.758;2023-09-30T07:12:42;17.30;75.40
28845;DHT22;15976;47.938;7.758;2023-09-30T07:15:10;17.40;75.20
28845;DHT22;15976;47.938;7.758;2023-09-30T07:17:39;17.50;75.20
28845;DHT22;15976;47.938;7.758;2023-09-30T07:20:11;17.60;75.00
28845;DHT22;15976;47.938;7.758;2023-09-30T07:22:39;17.70;74.60
28845;DHT22;15976;47.938;7.758;2023-09-30T07:25:25;17.80;74.30
28845;DHT22;15976;47.938;7.758;2023-09-30T07:27:52;17.90;74.20
28845;DHT22;15976;47.938;7.758;2023-09-30T07:30:19;17.90;74.10
28845;DHT22;15976;47.938;7.758;2023-09-30T07:32:46;18.00;74.00
28845;DHT22;15976;47.938;7.758;2023-09-30T07:35:14;18.10;73.80
28845;DHT22;15976;47.938;7.758;2023-09-30T07:37:43;18.20;73.70
28845;DHT22;15976;47.938;7.758;2023-09-30T07:40:11;18.30;73.60
28845;DHT22;15976;47.938;7.758;2023-09-30T07:42:39;18.40;73.40
28845;DHT22;15976;47.938;7.758;2023-09-30T07:45:07;18.50;73.20
28845;DHT22;15976;47.938;7.758;2023-09-30T07:47:34;18.60;72.70
28845;DHT22;15976;47.938;7.758;2023-09-30T07:50:02;18.60;72.40
28845;DHT22;15976;47.938;7.758;2023-09-30T07:52:34;18.70;72.20
28845;DHT22;15976;47.938;7.758;2023-09-30T07:55:01;18.70;71.90
28845;DHT22;15976;47.938;7.758;2023-09-30T07:57:32;18.90;71.70
28845;DHT22;15976;47.938;7.758;2023-09-30T08:00:00;18.90;71.30
28845;DHT22;15976;47.938;7.758;2023-09-30T08:02:35;19.00;70.90
28845;DHT22;15976;47.938;7.758;2023-09-30T08:05:06;19.20;70.60
28845;DHT22;15976;47.938;7.758;2023-09-30T08:07:34;19.30;70.00
28845;DHT22;15976;47.938;7.758;2023-09-30T08:10:02;19.50;69.50
28845;DHT22;15976;47.938;7.758;2023-09-30T08:12:33;19.60;69.30
28845;DHT22;15976;47.938;7.758;2023-09-30T08:15:00;19.60;69.20
28845;DHT22;15976;47.938;7.758;2023-09-30T08:17:31;19.70;69.00
28845;DHT22;15976;47.938;7.758;2023-09-30T08:19:59;19.80;68.80
28845;DHT22;15976;47.938;7.758;2023-09-30T08:22:26;19.80;68.70
28845;DHT22;15976;47.938;7.758;2023-09-30T08:24:55;19.90;68.50
28845;DHT22;15976;47.938;7.758;2023-09-30T08:27:23;19.90;68.00
28845;DHT22;15976;47.938;7.758;2023-09-30T08:29:53;20.00;67.60
28845;DHT22;15976;47.938;7.758;2023-09-30T08:32:21;20.10;68.00
28845;DHT22;15976;47.938;7.758;2023-09-30T08:34:49;20.10;66.80
28845;DHT22;15976;47.938;7.758;2023-09-30T08:37:16;20.20;66.60
28845;DHT22;15976;47.938;7.758;2023-09-30T08:39:43;20.20;66.20
28845;DHT22;15976;47.938;7.758;2023-09-30T08:42:12;20.40;66.20
28845;DHT22;15976;47.938;7.758;2023-09-30T08:44:39;20.40;66.00
28845;DHT22;15976;47.938;7.758;2023-09-30T08:47:07;20.50;65.70
28845;DHT22;15976;47.938;7.758;2023-09-30T08:49:41;20.50;65.70
28845;DHT22;15976;47.938;7.758;2023-09-30T08:52:10;20.40;65.80
28845;DHT22;15976;47.938;7.758;2023-09-30T08:54:40;20.40;66.00
28845;DHT22;15976;47.938;7.758;2023-09-30T08:57:12;20.30;66.00
28845;DHT22;15976;47.938;7.758;2023-09-30T08:59:46;20.30;66.40
28845;DHT22;15976;47.938;7.758;2023-09-30T09:02:15;20.40;66.50
28845;DHT22;15976;47.938;7.758;2023-09-30T09:04:47;20.40;66.20
28845;DHT22;15976;47.938;7.758;2023-09-30T09:07:16;20.60;65.80
28845;DHT22;15976;47.938;7.758;2023-09-30T09:10:11;20.70;65.40
28845;DHT22;15976;47.938;7.758;2023-09-30T09:12:41;20.80;65.10
28845;DHT22;15976;47.938;7.758;2023-09-30T09:15:22;20.90;64.90
28845;DHT22;15976;47.938;7.758;2023-09-30T09:17:52;21.00;64.80
28845;DHT22;15976;47.938;7.758;2023-09-30T09:20:22;21.10;64.60
28845;DHT22;15976;47.938;7.758;2023-09-30T09:22:52;21.20;64.40
28845;DHT22;15976;47.938;7.758;2023-09-30T09:25:21;21.20;64.20
28845;DHT22;15976;47.938;7.758;2023-09-30T09:27:52;21.30;64.00
28845;DHT22;15976;47.938;7.758;2023-09-30T09:30:25;21.40;63.70
28845;DHT22;15976;47.938;7.758;2023-09-30T09:33:03;21.50;63.20
28845;DHT22;15976;47.938;7.758;2023-09-30T09:35:33;21.50;63.00
28845;DHT22;15976;47.938;7.758;2023-09-30T09:40:37;21.60;63.50
28845;DHT22;15976;47.938;7.758;2023-09-30T09:43:09;21.60;62.70
28845;DHT22;15976;47.938;7.758;2023-09-30T09:45:37;21.70;62.70
28845;DHT22;15976;47.938;7.758;2023-09-30T09:48:05;21.70;62.60
28845;DHT22;15976;47.938;7.758;2023-09-30T09:50:34;21.70;62.40
28845;DHT22;15976;47.938;7.758;2023-09-30T09:53:04;21.70;62.40
28845;DHT22;15976;47.938;7.758;2023-09-30T09:55:32;21.90;62.60
28845;DHT22;15976;47.938;7.758;2023-09-30T09:58:02;21.90;62.20
28845;DHT22;15976;47.938;7.758;2023-09-30T10:00:30;22.00;61.80
28845;DHT22;15976;47.938;7.758;2023-09-30T10:02:59;22.00;61.60
28845;DHT22;15976;47.938;7.758;2023-09-30T10:05:29;22.00;61.20
28845;DHT22;15976;47.938;7.758;2023-09-30T10:08:01;22.00;61.30
28845;DHT22;15976;47.938;7.758;2023-09-30T10:10:30;21.90;61.40
28845;DHT22;15976;47.938;7.758;2023-09-30T10:12:58;21.90;61.40
28845;DHT22;15976;47.938;7.758;2023-09-30T10:18:03;22.10;61.10
28845;DHT22;15976;47.938;7.758;2023-09-30T10:20:32;22.20;60.90
28845;DHT22;15976;47.938;7.758;2023-09-30T10:23:26;22.20;60.60
28845;DHT22;15976;47.938;7.758;2023-09-30T10:28:43;22.30;60.10
28845;DHT22;15976;47.938;7.758;2023-09-30T10:31:22;22.40;59.90
28845;DHT22;15976;47.938;7.758;2023-09-30T10:36:37;22.40;59.50
28845;DHT22;15976;47.938;7.758;2023-09-30T10:39:11;22.40;59.30
28845;DHT22;15976;47.938;7.758;2023-09-30T10:47:33;22.70;58.80
28845;DHT22;15976;47.938;7.758;2023-09-30T10:49:52;22.80;58.70
28845;DHT22;15976;47.938;7.758;2023-09-30T10:52:23;22.90;58.50
28845;DHT22;15976;47.938;7.758;2023-09-30T10:54:51;22.90;58.20
28845;DHT22;15976;47.938;7.758;2023-09-30T10:57:28;23.00;58.20
28845;DHT22;15976;47.938;7.758;2023-09-30T11:00:11;22.90;57.90
28845;DHT22;15976;47.938;7.758;2023-09-30T11:02:50;23.00;57.80
28845;DHT22;15976;47.938;7.758;2023-09-30T11:05:19;23.10;58.30
28845;DHT22;15976;47.938;7.758;2023-09-30T11:08:07;23.10;57.50
28845;DHT22;15976;47.938;7.758;2023-09-30T11:10:35;23.10;57.20
28845;DHT22;15976;47.938;7.758;2023-09-30T11:13:02;23.20;57.00
28845;DHT22;15976;47.938;7.758;2023-09-30T11:15:30;23.20;56.70
28845;DHT22;15976;47.938;7.758;2023-09-30T11:18:16;23.30;56.70
28845;DHT22;15976;47.938;7.758;2023-09-30T11:20:45;23.40;56.50
28845;DHT22;15976;47.938;7.758;2023-09-30T11:23:12;23.40;56.40
28845;DHT22;15976;47.938;7.758;2023-09-30T11:25:41;23.50;56.00
28845;DHT22;15976;47.938;7.758;2023-09-30T11:28:16;23.40;55.50
28845;DHT22;15976;47.938;7.758;2023-09-30T11:30:59;23.40;55.30
28845;DHT22;15976;47.938;7.758;2023-09-30T11:33:27;23.50;55.00
28845;DHT22;15976;47.938;7.758;2023-09-30T11:36:03;23.60;54.70
28845;DHT22;15976;47.938;7.758;2023-09-30T11:38:32;23.70;54.10
28845;DHT22;15976;47.938;7.758;2023-09-30T11:41:04;23.80;53.60
28845;DHT22;15976;47.938;7.758;2023-09-30T11:43:34;23.90;53.30
28845;DHT22;15976;47.938;7.758;2023-09-30T11:46:09;24.00;53.00
28845;DHT22;15976;47.938;7.758;2023-09-30T11:49:02;24.10;52.50
28845;DHT22;15976;47.938;7.758;2023-09-30T11:51:34;24.30;51.70
28845;DHT22;15976;47.938;7.758;2023-09-30T11:54:10;24.40;51.70
28845;DHT22;15976;47.938;7.758;2023-09-30T11:56:37;24.50;51.40
28845;DHT22;15976;47.938;7.758;2023-09-30T11:59:05;24.70;51.20
28845;DHT22;15976;47.938;7.758;2023-09-30T12:01:32;24.90;51.00
28845;DHT22;15976;47.938;7.758;2023-09-30T12:03:59;25.10;50.60
28845;DHT22;15976;47.938;7.758;2023-09-30T12:06:26;25.30;50.10
28845;DHT22;15976;47.938;7.758;2023-09-30T12:08:55;25.50;49.30
28845;DHT22;15976;47.938;7.758;2023-09-30T12:11:25;25.70;48.80
28845;DHT22;15976;47.938;7.758;2023-09-30T12:13:52;25.90;48.40
28845;DHT22;15976;47.938;7.758;2023-09-30T12:16:21;26.10;48.10
28845;DHT22;15976;47.938;7.758;2023-09-30T12:18:48;26.20;47.40
28845;DHT22;15976;47.938;7.758;2023-09-30T12:21:15;26.30;47.00
28845;DHT22;15976;47.938;7.758;2023-09-30T12:23:47;26.50;46.80
28845;DHT22;15976;47.938;7.758;2023-09-30T12:26:16;26.50;46.30
28845;DHT22;15976;47.938;7.758;2023-09-30T12:28:46;26.50;45.60
28845;DHT22;15976;47.938;7.758;2023-09-30T12:31:14;26.50;45.60
28845;DHT22;15976;47.938;7.758;2023-09-30T12:33:45;26.40;45.60
28845;DHT22;15976;47.938;7.758;2023-09-30T12:36:18;26.40;45.60
28845;DHT22;15976;47.938;7.758;2023-09-30T12:38:45;26.40;45.60
28845;DHT22;15976;47.938;7.758;2023-09-30T12:41:13;26.30;45.50
28845;DHT22;15976;47.938;7.758;2023-09-30T12:43:41;26.10;45.50
28845;DHT22;15976;47.938;7.758;2023-09-30T12:46:09;26.00;45.70
28845;DHT22;15976;47.938;7.758;2023-09-30T12:48:36;25.90;45.80
28845;DHT22;15976;47.938;7.758;2023-09-30T12:51:05;25.80;45.80
28845;DHT22;15976;47.938;7.758;2023-09-30T12:53:33;25.80;46.00
28845;DHT22;15976;47.938;7.758;2023-09-30T12:56:01;25.90;46.10
28845;DHT22;15976;47.938;7.758;2023-09-30T12:58:28;25.90;45.80
28845;DHT22;15976;47.938;7.758;2023-09-30T13:00:56;26.10;45.60
28845;DHT22;15976;47.938;7.758;2023-09-30T13:03:47;26.30;45.30
28845;DHT22;15976;47.938;7.758;2023-09-30T13:06:15;26.30;45.10
28845;DHT22;15976;47.938;7.758;2023-09-30T13:09:02;26.40;44.80
28845;DHT22;15976;47.938;7.758;2023-09-30T13:11:33;26.50;44.50
28845;DHT22;15976;47.938;7.758;2023-09-30T13:14:05;26.60;44.00
28845;DHT22;15976;47.938;7.758;2023-09-30T13:16:32;26.80;43.80
28845;DHT22;15976;47.938;7.758;2023-09-30T13:18:59;27.10;43.50
28845;DHT22;15976;47.938;7.758;2023-09-30T13:21:29;27.60;43.20
28845;DHT22;15976;47.938;7.758;2023-09-30T13:23:56;28.10;42.30
28845;DHT22;15976;47.938;7.758;2023-09-30T13:26:23;28.40;41.20
28845;DHT22;15976;47.938;7.758;2023-09-30T13:28:51;28.60;40.90
28845;DHT22;15976;47.938;7.758;2023-09-30T13:31:18;28.80;40.80
28845;DHT22;15976;47.938;7.758;2023-09-30T13:33:46;29.40;40.20
28845;DHT22;15976;47.938;7.758;2023-09-30T13:36:14;29.40;39.20
28845;DHT22;15976;47.938;7.758;2023-09-30T13:38:42;29.10;39.00
28845;DHT22;15976;47.938;7.758;2023-09-30T13:41:10;28.60;39.30
28845;DHT22;15976;47.938;7.758;2023-09-30T13:43:38;28.20;39.60
28845;DHT22;15976;47.938;7.758;2023-09-30T13:46:06;28.00;39.80
28845;DHT22;15976;47.938;7.758;2023-09-30T13:48:34;28.30;39.70
28845;DHT22;15976;47.938;7.758;2023-09-30T13:51:08;28.90;38.80
28845;DHT22;15976;47.938;7.758;2023-09-30T13:53:36;29.50;38.00
28845;DHT22;15976;47.938;7.758;2023-09-30T13:56:03;30.00;37.40
28845;DHT22;15976;47.938;7.758;2023-09-30T13:58:31;29.90;37.00
28845;DHT22;15976;47.938;7.758;2023-09-30T14:00:58;29.90;37.30
28845;DHT22;15976;47.938;7.758;2023-09-30T14:03:25;30.40;36.90
28845;DHT22;15976;47.938;7.758;2023-09-30T14:05:53;30.80;35.90
28845;DHT22;15976;47.938;7.758;2023-09-30T14:08:21;30.40;35.50
28845;DHT22;15976;47.938;7.758;2023-09-30T14:10:48;30.20;36.00
28845;DHT22;15976;47.938;7.758;2023-09-30T14:13:17;30.40;35.70
28845;DHT22;15976;47.938;7.758;2023-09-30T14:15:45;30.60;35.30
28845;DHT22;15976;47.938;7.758;2023-09-30T14:18:15;30.70;35.40
28845;DHT22;15976;47.938;7.758;2023-09-30T14:20:42;30.70;35.30
28845;DHT22;15976;47.938;7.758;2023-09-30T14:23:09;30.60;35.30
28845;DHT22;15976;47.938;7.758;2023-09-30T14:25:37;30.50;35.60
28845;DHT22;15976;47.938;7.758;2023-09-30T14:28:04;30.50;35.90
28845;DHT22;15976;47.938;7.758;2023-09-30T14:30:31;30.50;35.80
28845;DHT22;15976;47.938;7.758;2023-09-30T14:32:59;30.50;35.80
28845;DHT22;15976;47.938;7.758;2023-09-30T14:35:27;30.40;36.00
28845;DHT22;15976;47.938;7.758;2023-09-30T14:37:55;30.20;36.10
28845;DHT22;15976;47.938;7.758;2023-09-30T14:40:23;29.80;36.50
28845;DHT22;15976;47.938;7.758;2023-09-30T14:42:51;29.50;37.00
28845;DHT22;15976;47.938;7.758;2023-09-30T14:45:18;29.60;37.10
28845;DHT22;15976;47.938;7.758;2023-09-30T14:47:48;29.50;36.80
28845;DHT22;15976;47.938;7.758;2023-09-30T14:50:16;29.10;37.10
28845;DHT22;15976;47.938;7.758;2023-09-30T14:52:43;28.70;37.90
28845;DHT22;15976;47.938;7.758;2023-09-30T14:55:10;28.60;38.10
28845;DHT22;15976;47.938;7.758;2023-09-30T14:57:37;28.80;38.20
28845;DHT22;15976;47.938;7.758;2023-09-30T15:00:06;28.90;38.00
28845;DHT22;15976;47.938;7.758;2023-09-30T15:02:34;28.90;37.80
28845;DHT22;15976;47.938;7.758;2023-09-30T15:05:01;28.90;37.90
28845;DHT22;15976;47.938;7.758;2023-09-30T15:07:28;28.90;37.90
28845;DHT22;15976;47.938;7.758;2023-09-30T15:09:57;28.70;37.90
28845;DHT22;15976;47.938;7.758;2023-09-30T15:12:25;28.30;38.20
28845;DHT22;15976;47.938;7.758;2023-09-30T15:14:53;27.90;38.80
28845;DHT22;15976;47.938;7.758;2023-09-30T15:17:20;27.50;39.00
28845;DHT22;15976;47.938;7.758;2023-09-30T15:19:47;27.30;39.40
28845;DHT22;15976;47.938;7.758;2023-09-30T15:22:15;27.10;39.70
28845;DHT22;15976;47.938;7.758;2023-09-30T15:24:43;27.20;39.80
28845;DHT22;15976;47.938;7.758;2023-09-30T15:27:10;27.20;39.70
28845;DHT22;15976;47.938;7.758;2023-09-30T15:29:38;27.20;39.60
28845;DHT22;15976;47.938;7.758;2023-09-30T15:32:06;27.20;39.50
28845;DHT22;15976;47.938;7.758;2023-09-30T15:34:36;27.10;39.50
28845;DHT22;15976;47.938;7.758;2023-09-30T15:37:07;26.90;39.80
28845;DHT22;15976;47.938;7.758;2023-09-30T15:39:39;26.70;40.20
28845;DHT22;15976;47.938;7.758;2023-09-30T15:42:07;26.40;40.70
28845;DHT22;15976;47.938;7.758;2023-09-30T15:44:39;26.10;41.30
28845;DHT22;15976;47.938;7.758;2023-09-30T15:47:08;25.80;41.60
28845;DHT22;15976;47.938;7.758;2023-09-30T15:49:35;25.60;41.90
28845;DHT22;15976;47.938;7.758;2023-09-30T15:52:03;25.40;42.30
28845;DHT22;15976;47.938;7.758;2023-09-30T15:54:30;25.10;42.70
28845;DHT22;15976;47.938;7.758;2023-09-30T15:56:57;24.90;43.20
28845;DHT22;15976;47.938;7.758;2023-09-30T15:59:25;24.70;43.90